Time;durP1;ratioP1;P1;durP2;ratioP2;P2;SDS_P1;SDS_P2;PMS_P1;PMS_P2;Temp;Humidity;BMP_temperature;BMP_pressure;BME280_temperature;BME280_humidity;BME280_pressure;Samples;Min_cycle;Max_cycle;Signal;HPM_P1;HPM_P2
2022/02/14 00:00:52;;;;;;;12.50;5.53;;;;;;;2.95;68.23;100108.16;5113022;28;20078;-77
2022/02/14 00:03:22;;;;;;;10.02;5.30;;;;;;;3.00;68.21;100096.56;5114024;28;20047;-77
2022/02/14 00:05:52;;;;;;;11.88;5.80;;;;;;;3.00;68.07;100101.63;5114107;28;20044;-76
2022/02/14 00:08:21;;;;;;;12.20;6.40;;;;;;;3.03;68.46;100100.06;5114332;28;20089;-77
2022/02/14 00:10:50;;;;;;;11.20;5.82;;;;;;;3.06;68.40;100095.13;5114070;28;20118;-77
2022/02/14 00:13:21;;;;;;;12.30;6.30;;;;;;;3.07;68.20;100093.47;5114197;28;20493;-77
2022/02/14 00:15:52;;;;;;;10.90;5.35;;;;;;;3.03;68.71;100084.06;5114394;28;20088;-77
2022/02/14 00:18:22;;;;;;;10.15;5.85;;;;;;;3.01;68.46;100086.53;5113227;28;20047;-77
2022/02/14 00:20:51;;;;;;;13.33;6.13;;;;;;;3.02;68.06;100079.84;5114142;28;20039;-77
2022/02/14 00:23:20;;;;;;;10.40;4.97;;;;;;;2.98;68.47;100078.84;5114353;28;20039;-77
2022/02/14 00:25:49;;;;;;;7.90;4.05;;;;;;;3.01;68.57;100073.06;5113970;28;20064;-77
2022/02/14 00:28:17;;;;;;;10.80;5.57;;;;;;;3.05;68.13;100070.72;5114484;28;20035;-77
2022/02/14 00:30:48;;;;;;;14.70;5.70;;;;;;;3.08;68.89;100064.91;5113693;28;20055;-77
2022/02/14 00:33:18;;;;;;;13.40;5.82;;;;;;;3.10;68.19;100069.22;5113685;28;20055;-76
2022/02/14 00:35:49;;;;;;;;;;;;;;;3.14;68.41;100062.63;5113525;28;20381;-76
2022/02/14 00:38:20;;;;;;;10.35;5.18;;;;;;;3.18;68.38;100051.81;5113731;28;19965;-77
2022/02/14 00:40:50;;;;;;;12.00;5.82;;;;;;;3.19;68.07;100053.56;5113460;28;20043;-77
2022/02/14 00:43:20;;;;;;;10.93;6.43;;;;;;;3.22;68.16;100059.53;5112690;28;20126;-77
2022/02/14 00:45:52;;;;;;;11.48;5.78;;;;;;;3.21;68.54;100057.84;5112658;28;20079;-77
2022/02/14 00:48:21;;;;;;;11.63;6.10;;;;;;;3.24;68.59;100046.97;5113835;28;20047;-76
2022/02/14 00:50:50;;;;;;;12.15;5.65;;;;;;;3.26;68.64;100045.38;5113464;28;20035;-77
2022/02/14 00:53:19;;;;;;;11.07;5.10;;;;;;;3.26;68.38;100047.91;5113245;28;20055;-78
2022/02/14 00:55:48;;;;;;;8.32;4.15;;;;;;;3.13;68.30;100039.06;5113777;28;20484;-77
2022/02/14 00:58:18;;;;;;;15.27;6.07;;;;;;;3.23;67.79;100047.81;5113455;28;20051;-77
2022/02/14 01:00:47;;;;;;;11.80;5.70;;;;;;;3.25;68.20;100053.75;5113315;28;20603;-77
2022/02/14 01:03:17;;;;;;;11.65;5.80;;;;;;;3.23;68.73;100041.09;5117093;28;20044;-76
2022/02/14 01:05:46;;;;;;;14.02;6.03;;;;;;;3.26;68.12;100045.38;5116592;28;20048;-76
2022/02/14 01:08:15;;;;;;;13.70;5.63;;;;;;;3.28;68.79;100043.78;5115708;28;20475;-76
2022/02/14 01:10:45;;;;;;;12.13;4.67;;;;;;;3.33;68.28;100047.31;5117022;28;20040;-76
2022/02/14 01:13:14;;;;;;;10.77;5.47;;;;;;;3.38;68.13;100040.75;5098733;28;20272;-76
2022/02/14 01:15:43;;;;;;;13.88;5.47;;;;;;;3.39;68.37;100033.22;5116897;28;20051;-76
2022/02/14 01:18:13;;;;;;;13.73;5.57;;;;;;;3.38;67.72;100030.66;5082436;28;20047;-76
2022/02/14 01:20:44;;;;;;;12.60;5.78;;;;;;;3.40;68.68;100024.00;5117349;28;20389;-77
2022/02/14 01:23:13;;;;;;;11.50;5.68;;;;;;;3.37;67.91;100018.84;5116797;28;20114;-77
2022/02/14 01:25:42;;;;;;;11.20;5.90;;;;;;;3.46;68.27;100018.28;5116769;28;20048;-77
2022/02/14 01:28:12;;;;;;;11.88;5.38;;;;;;;3.38;67.78;100000.41;5116612;28;20043;-77
2022/02/14 01:30:41;;;;;;;14.80;5.75;;;;;;;3.49;68.16;100021.78;5116905;28;20118;-76
2022/02/14 01:33:10;;;;;;;14.05;6.35;;;;;;;3.59;67.30;100008.66;5115694;28;20059;-76
2022/02/14 01:35:39;;;;;;;;;;;;;;;3.60;67.78;100007.00;5098710;28;20054;-76
2022/02/14 01:38:10;;;;;;;9.02;4.70;;;;;;;3.61;67.97;100014.59;5116368;28;20395;-76
2022/02/14 01:40:39;;;;;;;12.93;6.07;;;;;;;3.60;67.28;100007.84;5115147;28;20052;-77
2022/02/14 01:43:09;;;;;;;13.15;6.35;;;;;;;3.63;67.86;100004.56;5116705;28;20036;-76
2022/02/14 01:45:38;;;;;;;13.02;5.70;;;;;;;3.64;68.04;99998.72;5116301;28;20093;-76
2022/02/14 01:48:07;;;;;;;10.52;5.57;;;;;;;3.64;67.76;100003.75;5115375;28;20121;-76
2022/02/14 01:50:36;;;;;;;12.82;5.60;;;;;;;3.63;67.57;99986.88;5081509;28;20048;-76
2022/02/14 01:53:06;;;;;;;13.35;5.65;;;;;;;3.65;67.38;99991.16;5116174;28;20047;-76
2022/02/14 01:55:37;;;;;;;11.77;5.57;;;;;;;3.66;67.95;99981.94;5116540;28;20051;-76
2022/02/14 01:58:06;;;;;;;11.45;5.60;;;;;;;3.63;67.14;99977.66;5116064;28;20043;-76
2022/02/14 02:00:37;;;;;;;7.27;4.03;;;;;;;3.61;67.17;99983.47;5116302;28;20093;-76
2022/02/14 02:03:06;;;;;;;12.27;5.65;;;;;;;3.55;67.59;99979.06;5116136;28;20048;-76
2022/02/14 02:05:35;;;;;;;10.43;5.18;;;;;;;3.57;67.69;99977.47;5115920;28;20493;-76
2022/02/14 02:08:06;;;;;;;11.60;5.03;;;;;;;3.60;66.84;99966.63;5116194;28;20051;-76
2022/02/14 02:10:37;;;;;;;10.98;5.78;;;;;;;3.59;67.73;99972.47;5115857;28;20515;-76
2022/02/14 02:13:08;;;;;;;13.05;6.68;;;;;;;3.58;67.65;99965.69;5116303;28;20036;-76
2022/02/14 02:15:37;;;;;;;8.98;4.78;;;;;;;3.54;66.91;99959.72;5116125;28;20505;-76
2022/02/14 02:18:07;;;;;;;10.52;5.32;;;;;;;3.56;67.27;99963.13;5116249;28;20431;-76
2022/02/14 02:20:36;;;;;;;9.83;5.43;;;;;;;3.37;67.50;99935.63;5114768;28;20047;-76
2022/02/14 02:23:05;;;;;;;12.30;5.63;;;;;;;3.50;67.13;99960.44;5115764;28;20283;-76
2022/02/14 02:25:37;;;;;;;10.30;4.95;;;;;;;3.45;67.50;99954.38;5115526;28;20131;-76
2022/02/14 02:28:07;;;;;;;11.23;5.68;;;;;;;3.45;67.87;99954.38;5115493;28;20054;-76
2022/02/14 02:30:37;;;;;;;12.68;5.65;;;;;;;3.45;67.36;99951.88;5115441;28;20059;-76
2022/02/14 02:33:06;;;;;;;11.55;5.25;;;;;;;3.50;67.49;99952.00;5115441;28;20039;-76
2022/02/14 02:35:36;;;;;;;14.10;6.43;;;;;;;3.52;67.51;99956.28;5115337;28;20035;-76
2022/02/14 02:38:06;;;;;;;9.57;4.70;;;;;;;3.45;66.45;99936.72;5114589;28;20055;-76
2022/02/14 02:40:37;;;;;;;;;;;;;;;3.55;67.23;99948.78;5115598;28;20063;-76
2022/02/14 02:43:06;;;;;;;12.10;5.88;;;;;;;3.55;67.25;99948.78;5115587;28;20014;-76
2022/02/14 02:45:35;;;;;;;;;;;;;;;3.51;67.06;99948.66;5115574;28;20390;-76
2022/02/14 02:48:05;;;;;;;12.77;4.78;;;;;;;3.44;67.16;99939.19;5114148;28;19927;-76
2022/02/14 02:50:34;;;;;;;12.77;5.80;;;;;;;3.42;66.57;99936.63;5114955;28;20043;-76
2022/02/14 02:53:03;;;;;;;9.37;4.33;;;;;;;3.41;66.57;99932.38;5114992;28;20044;-76
2022/02/14 02:55:32;;;;;;;11.00;5.90;;;;;;;3.38;66.49;99929.78;5113606;28;20062;-75
2022/02/14 02:58:04;;;;;;;13.93;6.00;;;;;;;3.38;66.79;99937.34;5115212;28;20419;-76
2022/02/14 03:00:33;;;;;;;11.25;5.10;;;;;;;3.41;66.85;99934.88;5113876;28;20071;-76
2022/02/14 03:03:02;;;;;;;12.48;5.88;;;;;;;3.42;66.79;99926.53;5115109;28;20127;-76
2022/02/14 03:05:31;;;;;;;11.52;4.95;;;;;;;3.41;66.91;99927.31;5096835;28;20063;-76
2022/02/14 03:08:01;;;;;;;10.25;4.78;;;;;;;3.41;67.07;99922.28;5114817;28;20040;-76
2022/02/14 03:10:30;;;;;;;13.57;5.65;;;;;;;3.46;66.51;99918.22;5080283;28;20047;-76
2022/02/14 03:13:00;;;;;;;14.27;5.90;;;;;;;3.50;65.95;99909.13;5114934;28;20046;-76
2022/02/14 03:15:30;;;;;;;11.35;5.35;;;;;;;3.52;66.39;99907.50;5113468;28;20051;-76
2022/02/14 03:18:00;;;;;;;10.15;5.65;;;;;;;3.49;65.88;99910.78;5114576;28;20071;-76
2022/02/14 03:20:29;;;;;;;12.30;5.50;;;;;;;3.54;65.94;99919.34;5115141;28;20042;-76
2022/02/14 03:22:58;;;;;;;;;;;;;;;3.51;65.85;99916.72;5114027;28;20044;-76
2022/02/14 03:25:28;;;;;;;10.38;4.70;;;;;;;3.49;66.71;99913.28;5113332;28;19962;-76
2022/02/14 03:27:57;;;;;;;;;;;;;;;3.54;66.29;99911.78;5113628;28;20050;-76
2022/02/14 03:30:25;;;;;;;11.93;5.53;;;;;;;3.55;66.25;99905.06;5114255;28;19927;-76
2022/02/14 03:32:56;;;;;;;8.68;3.90;;;;;;;3.63;66.27;99912.03;5114283;28;20046;-76
2022/02/14 03:35:26;;;;;;;12.32;5.72;;;;;;;3.64;65.77;99905.34;5113312;28;20043;-76
2022/02/14 03:37:56;;;;;;;12.05;5.00;;;;;;;3.66;65.75;99907.09;5114609;28;20135;-76
2022/02/14 03:40:25;;;;;;;10.15;5.80;;;;;;;3.67;66.02;99893.66;5114503;28;20040;-76
2022/02/14 03:42:56;;;;;;;10.60;5.22;;;;;;;3.65;65.68;99899.47;5114319;28;20036;-76
2022/02/14 03:45:25;;;;;;;12.52;5.65;;;;;;;3.64;65.97;99903.69;5114500;28;20044;-76
2022/02/14 03:47:56;;;;;;;10.98;5.45;;;;;;;3.63;65.43;99886.81;5114275;28;20404;-76
2022/02/14 03:50:25;;;;;;;13.80;5.72;;;;;;;3.60;65.52;99884.19;5114201;28;20063;-76
2022/02/14 03:52:54;;;;;;;10.32;5.55;;;;;;;3.59;65.27;99895.13;5112624;28;20032;-76
2022/02/14 03:55:24;;;;;;;12.00;5.78;;;;;;;3.54;66.20;99881.50;5113909;28;20044;-76
2022/02/14 03:57:53;;;;;;;11.27;5.35;;;;;;;3.53;66.07;99879.78;5114013;28;20052;-76
2022/02/14 04:00:24;;;;;;;11.35;6.07;;;;;;;3.54;65.71;99876.44;5114014;28;20135;-76
2022/02/14 04:02:53;;;;;;;9.82;4.93;;;;;;;3.54;66.06;99876.44;5113963;28;20501;-77
2022/02/14 04:05:26;;;;;;;11.93;5.70;;;;;;;3.61;66.19;99872.44;5114308;28;20047;-76
2022/02/14 04:07:58;;;;;;;12.75;5.43;;;;;;;3.66;65.48;99881.88;5112801;28;20131;-75
2022/02/14 04:10:28;;;;;;;12.15;5.43;;;;;;;3.63;66.11;99881.75;5114029;28;20075;-76
2022/02/14 04:12:58;;;;;;;11.10;5.15;;;;;;;3.62;65.84;99875.03;5114584;28;20063;-76
2022/02/14 04:15:27;;;;;;;10.98;5.20;;;;;;;3.54;65.43;99871.41;5114285;28;20081;-76
2022/02/14 04:17:57;;;;;;;13.65;6.18;;;;;;;3.58;65.54;99878.25;5114547;28;20043;-76
2022/02/14 04:20:30;;;;;;;12.57;6.80;;;;;;;3.59;66.10;99869.88;5112693;28;20074;-76
2022/02/14 04:22:59;;;;;;;10.07;5.15;;;;;;;3.59;65.34;99869.00;5114213;28;20039;-77
2022/02/14 04:25:31;;;;;;;12.15;6.20;;;;;;;3.59;65.53;99869.88;5114104;28;20386;-76
2022/02/14 04:27:59;;;;;;;;;;;;;;;3.60;66.01;99861.47;5114754;28;20442;-76
2022/02/14 04:30:31;;;;;;;12.00;5.68;;;;;;;3.57;65.59;99856.38;5114066;28;19965;-76
2022/02/14 04:33:01;;;;;;;12.35;5.93;;;;;;;3.52;65.68;99850.31;5113611;28;20039;-76
2022/02/14 04:35:34;;;;;;;11.95;5.70;;;;;;;3.51;65.36;99851.13;5113987;28;20055;-75
2022/02/14 04:38:03;;;;;;;13.65;5.75;;;;;;;3.51;65.63;99853.66;5117272;28;20040;-76
2022/02/14 04:40:37;;;;;;;10.15;5.28;;;;;;;3.46;65.57;99850.13;5117662;27;20048;-76
2022/02/14 04:43:06;;;;;;;10.23;5.75;;;;;;;3.50;65.79;99849.44;5117443;28;20074;-76
2022/02/14 04:45:36;;;;;;;13.05;5.28;;;;;;;3.49;65.42;99846.84;5117494;28;20040;-76
2022/02/14 04:48:06;;;;;;;13.32;6.63;;;;;;;3.54;65.84;99851.22;5117446;28;20044;-76
2022/02/14 04:50:38;;;;;;;12.57;5.28;;;;;;;3.56;65.43;99848.72;5100229;28;20062;-76
2022/02/14 04:53:07;;;;;;;13.27;6.07;;;;;;;3.55;65.33;99850.38;5116611;28;20044;-76
2022/02/14 04:55:38;;;;;;;10.65;5.15;;;;;;;3.56;65.63;99852.13;5117283;28;20054;-76
2022/02/14 04:58:07;;;;;;;10.87;6.07;;;;;;;3.59;65.53;99844.66;5117602;28;20038;-76
2022/02/14 05:00:36;;;;;;;13.40;5.47;;;;;;;3.62;65.56;99854.84;5118142;28;20763;-76
2022/02/14 05:03:05;;;;;;;13.45;5.75;;;;;;;3.56;65.97;99846.22;5117044;28;20074;-76
2022/02/14 05:05:34;;;;;;;9.63;3.97;;;;;;;3.51;65.48;99846.06;5117404;28;20089;-76
2022/02/14 05:08:06;;;;;;;10.27;5.20;;;;;;;3.51;65.98;99851.13;5117106;28;20058;-76
2022/02/14 05:10:35;;;;;;;10.02;5.78;;;;;;;3.50;66.00;99851.94;5117073;27;20047;-76
2022/02/14 05:13:04;;;;;;;;;;;;;;;3.53;66.33;99853.72;5117961;28;20388;-75
2022/02/14 05:15:33;;;;;;;11.75;5.85;;;;;;;3.56;66.34;99847.06;5117184;28;19970;-76
2022/02/14 05:18:02;;;;;;;12.40;5.53;;;;;;;3.56;66.13;99854.63;5116989;28;20039;-76
2022/02/14 05:20:32;;;;;;;11.65;5.75;;;;;;;3.50;66.20;99844.38;5115666;28;20054;-76
2022/02/14 05:23:01;;;;;;;12.50;5.45;;;;;;;3.50;65.91;99844.38;5116964;28;20032;-76
2022/02/14 05:25:32;;;;;;;14.75;6.20;;;;;;;3.51;65.85;99850.25;5116669;28;20088;-76
2022/02/14 05:28:06;;;;;;;12.43;6.55;;;;;;;3.50;65.99;99851.09;5115572;28;20047;-76
2022/02/14 05:30:35;;;;;;;11.15;6.40;;;;;;;3.57;65.65;99850.47;5116718;28;20077;-76
2022/02/14 05:33:06;;;;;;;12.85;5.93;;;;;;;3.61;66.26;99853.13;5116544;28;20508;-76
2022/02/14 05:35:35;;;;;;;13.13;5.72;;;;;;;3.61;65.45;99848.06;5116424;28;20058;-75
2022/02/14 05:38:09;;;;;;;16.10;6.93;;;;;;;3.63;66.06;99845.56;5115316;28;20524;-76
2022/02/14 05:40:40;;;;;;;11.57;5.97;;;;;;;3.58;66.14;99847.09;5116537;28;20089;-76
2022/02/14 05:43:10;;;;;;;11.63;6.13;;;;;;;3.55;65.92;99847.03;5116557;28;20431;-76
2022/02/14 05:45:38;;;;;;;10.95;4.68;;;;;;;3.51;66.04;99848.59;5115108;28;20032;-76
2022/02/14 05:48:08;;;;;;;11.57;5.37;;;;;;;3.55;66.29;99857.97;5116254;27;20088;-76
2022/02/14 05:50:37;;;;;;;11.60;5.72;;;;;;;3.53;65.63;99852.03;5116218;28;20279;-76
2022/02/14 05:53:06;;;;;;;12.63;5.57;;;;;;;3.51;66.70;99846.06;5065191;28;20101;-76
2022/02/14 05:55:36;;;;;;;12.48;5.75;;;;;;;3.55;65.94;99849.56;5080581;28;20050;-76
2022/02/14 05:58:06;;;;;;;12.65;5.15;;;;;;;3.63;66.18;99851.50;5116128;28;20522;-76
2022/02/14 06:00:35;;;;;;;12.93;6.18;;;;;;;3.67;65.34;99860.00;5116112;28;20048;-76
2022/02/14 06:03:05;;;;;;;12.63;5.95;;;;;;;3.61;65.68;99858.16;5116214;28;20385;-76
2022/02/14 06:05:35;;;;;;;14.57;5.97;;;;;;;3.59;66.17;99859.78;5116095;28;20043;-76
2022/02/14 06:08:04;;;;;;;13.98;5.68;;;;;;;3.56;65.65;99853.78;5116146;28;20499;-76
2022/02/14 06:10:33;;;;;;;12.00;5.38;;;;;;;3.53;66.30;99857.06;5097895;28;20055;-76
2022/02/14 06:13:02;;;;;;;11.55;5.05;;;;;;;3.58;66.65;99863.09;5116625;28;20043;-76
2022/02/14 06:15:38;;;;;;;12.50;6.28;;;;;;;3.59;65.56;99858.94;5116458;28;20389;-76
2022/02/14 06:18:07;;;;;;;10.35;4.82;;;;;;;3.53;66.08;99854.53;5114707;28;20044;-76
2022/02/14 06:20:36;;;;;;;18.30;6.85;;;;;;;3.57;66.47;99856.38;5115957;28;20040;-76
2022/02/14 06:23:06;;;;;;;13.77;6.20;;;;;;;3.65;65.77;99844.81;5115427;28;20067;-76
2022/02/14 06:25:37;;;;;;;10.05;4.72;;;;;;;3.85;66.04;99858.00;5115579;28;20503;-76
2022/02/14 06:28:08;;;;;;;12.05;5.70;;;;;;;3.78;65.69;99857.00;5114620;28;20138;-76
2022/02/14 06:30:40;;;;;;;13.55;6.25;;;;;;;3.67;66.07;99858.31;5115595;28;20056;-76
2022/02/14 06:33:10;;;;;;;13.35;6.07;;;;;;;3.70;65.72;99853.38;5115683;28;20043;-76
2022/02/14 06:35:39;;;;;;;10.43;5.40;;;;;;;3.78;65.85;99853.59;5114190;28;20047;-76
2022/02/14 06:38:08;;;;;;;13.17;5.37;;;;;;;3.86;65.46;99855.53;5115582;28;20036;-76
2022/02/14 06:40:42;;;;;;;12.75;5.55;;;;;;;3.92;65.23;99850.66;5115576;28;20489;-76
2022/02/14 06:43:11;;;;;;;;;;;;;;;3.96;65.11;99857.50;5115518;28;20040;-76
2022/02/14 06:45:42;;;;;;;9.25;5.05;;;;;;;4.00;64.79;99849.22;5113877;28;19919;-76
2022/02/14 06:48:12;;;;;;;14.82;5.90;;;;;;;3.95;65.28;99833.09;5114232;28;20048;-76
2022/02/14 06:50:42;;;;;;;11.43;5.63;;;;;;;4.00;64.65;99839.13;5114452;28;20138;-76
2022/02/14 06:53:13;;;;;;;12.00;5.32;;;;;;;4.06;65.30;99849.38;5115059;28;20050;-77
2022/02/14 06:55:42;;;;;;;13.10;5.97;;;;;;;4.14;64.35;99846.19;5114895;28;20046;-76
2022/02/14 06:58:11;;;;;;;;;;;;;;;4.14;64.79;99846.19;5115315;28;20055;-76
2022/02/14 07:00:42;;;;;;;16.40;5.30;;;;;;;4.22;64.90;99845.63;5113023;28;19962;-77
2022/02/14 07:03:12;;;;;;;12.00;5.75;;;;;;;4.27;64.71;99844.03;5115217;28;20343;-76
2022/02/14 07:05:42;;;;;;;13.35;5.10;;;;;;;4.36;63.91;99838.38;5114674;28;20530;-76
2022/02/14 07:08:11;;;;;;;12.15;5.65;;;;;;;4.48;64.14;99842.09;5114771;28;20097;-76
2022/02/14 07:10:42;;;;;;;14.70;5.50;;;;;;;4.57;63.31;99838.94;5114994;28;20074;-77
2022/02/14 07:13:11;;;;;;;11.98;6.15;;;;;;;4.67;63.56;99835.84;5114635;28;20047;-77
2022/02/14 07:15:42;;;;;;;12.70;6.13;;;;;;;4.70;62.92;99825.81;5114542;28;20088;-76
2022/02/14 07:18:13;;;;;;;11.13;5.35;;;;;;;4.70;62.99;99820.75;5114893;28;20086;-76
2022/02/14 07:20:43;;;;;;;10.82;5.40;;;;;;;4.86;63.41;99825.34;5114481;27;20089;-76
2022/02/14 07:23:13;;;;;;;10.27;5.40;;;;;;;5.00;62.93;99821.47;5114589;28;20052;-76
2022/02/14 07:25:42;;;;;;;11.90;5.20;;;;;;;4.93;62.56;99819.63;5114418;28;20040;-76
2022/02/14 07:28:12;;;;;;;13.50;5.80;;;;;;;4.97;62.65;99821.41;5114634;28;20523;-77
2022/02/14 07:30:43;;;;;;;11.88;6.13;;;;;;;4.95;62.23;99810.41;5113250;28;20044;-76
2022/02/14 07:33:12;;;;;;;11.20;5.68;;;;;;;5.07;61.92;99792.13;5114401;28;20127;-77
2022/02/14 07:35:41;;;;;;;12.20;5.90;;;;;;;5.22;61.86;99800.91;5113391;28;20489;-77
2022/02/14 07:38:11;;;;;;;12.18;5.82;;;;;;;5.28;61.72;99793.44;5114171;28;20329;-77
2022/02/14 07:40:41;;;;;;;10.68;6.00;;;;;;;5.29;61.28;99800.22;5114104;28;20051;-77
2022/02/14 07:43:12;;;;;;;11.13;6.35;;;;;;;5.33;61.38;99806.19;5114154;28;20058;-76
2022/02/14 07:45:41;;;;;;;8.80;5.38;;;;;;;5.38;61.22;99797.03;5114341;28;20424;-77
2022/02/14 07:48:14;;;;;;;;;;;;;;;5.51;61.18;99795.63;5114769;28;20052;-74
2022/02/14 07:50:43;;;;;;;11.93;5.72;;;;;;;5.63;61.15;99801.81;5113942;28;20399;-76
2022/02/14 07:53:12;;;;;;;14.50;6.23;;;;;;;5.51;60.47;99798.16;5113959;28;20122;-76
2022/02/14 07:55:41;;;;;;;11.27;5.60;;;;;;;5.63;60.78;99800.94;5112803;28;20036;-77
2022/02/14 07:58:10;;;;;;;11.87;6.03;;;;;;;5.72;60.51;99791.00;5114137;28;20043;-76
2022/02/14 08:00:41;;;;;;;10.43;5.97;;;;;;;5.82;60.21;99792.91;5114319;28;20032;-76
2022/02/14 08:03:12;;;;;;;16.55;6.70;;;;;;;5.96;60.07;99789.00;5114027;28;20051;-76
2022/02/14 08:05:42;;;;;;;14.25;6.50;;;;;;;5.91;59.91;99793.09;5114040;28;20073;-77
2022/02/14 08:08:11;;;;;;;14.10;6.70;;;;;;;5.99;60.06;99787.38;5113994;28;20104;-76
2022/02/14 08:10:55;;;;;;;10.93;5.97;;;;;;;6.02;60.25;99787.41;5116236;28;20154;-76
2022/02/14 08:13:26;;;;;;;13.07;5.32;;;;;;;6.11;59.94;99781.69;5117133;28;20044;-77
2022/02/14 08:15:55;;;;;;;14.90;6.77;;;;;;;6.15;59.23;99785.97;5118940;28;20043;-76
2022/02/14 08:18:26;;;;;;;12.75;6.32;;;;;;;6.01;59.36;99773.06;5099423;28;20272;-75
2022/02/14 08:20:57;;;;;;;12.95;6.78;;;;;;;6.02;59.72;99768.84;5117954;28;20492;-76
2022/02/14 08:23:26;;;;;;;12.73;6.38;;;;;;;6.11;59.81;99785.88;5118534;28;20446;-75
2022/02/14 08:25:55;;;;;;;15.18;6.75;;;;;;;6.11;59.48;99781.69;5118120;28;20463;-76
2022/02/14 08:28:25;;;;;;;14.68;6.60;;;;;;;6.16;60.02;99779.22;5117847;28;20050;-75
2022/02/14 08:30:54;;;;;;;8.87;5.30;;;;;;;6.26;59.81;99779.44;5082847;28;20512;-76
2022/02/14 08:33:23;;;;;;;13.80;7.03;;;;;;;6.21;59.55;99772.56;5117628;28;20059;-75
2022/02/14 08:35:56;;;;;;;14.27;7.55;;;;;;;6.15;59.83;99763.16;5117339;28;20044;-76
2022/02/14 08:38:36;;;;;;;13.88;6.28;;;;;;;6.34;59.90;99741.53;5118064;28;20051;-75
2022/02/14 08:41:05;;;;;;;14.52;7.35;;;;;;;6.52;58.98;99757.94;5116634;28;20097;-76
2022/02/14 08:43:35;;;;;;;14.68;6.93;;;;;;;6.45;58.77;99761.19;5117902;28;20050;-75
2022/02/14 08:46:06;;;;;;;12.48;6.30;;;;;;;6.50;59.39;99757.03;5117425;28;20036;-77
2022/02/14 08:48:36;;;;;;;13.13;6.63;;;;;;;6.80;59.08;99745.66;5099971;28;20131;-75
2022/02/14 08:51:07;;;;;;;12.07;6.43;;;;;;;6.77;58.34;99748.19;5117469;28;20069;-74
2022/02/14 08:53:37;;;;;;;16.58;7.35;;;;;;;6.85;58.50;99738.97;5117253;27;20051;-78
2022/02/14 08:56:06;;;;;;;;;;;;;;;6.95;58.29;99740.81;5117372;28;20039;-77
2022/02/14 08:58:36;;;;;;;;;;;;;;;7.10;57.81;99735.97;5117816;28;20010;-78
2022/02/14 09:01:06;;;;;;;12.98;6.78;;;;;;;7.22;57.81;99741.22;5117593;28;20378;-76
2022/02/14 09:03:36;;;;;;;16.27;7.32;;;;;;;7.30;57.50;99743.00;5082279;28;20074;-77
2022/02/14 09:06:07;;;;;;;14.27;6.97;;;;;;;7.32;57.09;99735.41;5117166;28;20043;-77
2022/02/14 09:08:37;;;;;;;15.10;7.47;;;;;;;7.23;56.93;99712.44;5117094;28;20054;-78
2022/02/14 09:11:05;;;;;;;13.95;7.18;;;;;;;7.27;56.71;99714.22;5117011;28;20051;-78
2022/02/14 09:13:36;;;;;;;11.80;6.88;;;;;;;7.35;57.23;99738.84;5116961;28;20040;-77
2022/02/14 09:16:06;;;;;;;13.65;7.25;;;;;;;7.38;57.05;99717.72;5117004;28;20039;-78
2022/02/14 09:18:37;;;;;;;11.90;6.72;;;;;;;7.60;56.93;99716.31;5116949;28;20044;-77
2022/02/14 09:21:08;;;;;;;17.05;7.88;;;;;;;7.49;55.92;99706.00;5116858;28;20044;-78
2022/02/14 09:23:37;;;;;;;13.35;7.03;;;;;;;7.52;56.49;99718.75;5116128;28;20416;-77
2022/02/14 09:26:07;;;;;;;12.98;7.72;;;;;;;7.60;55.57;99724.78;5116848;28;20036;-77
2022/02/14 09:28:36;;;;;;;14.87;7.30;;;;;;;7.60;56.05;99721.38;5117053;28;20032;-77
2022/02/14 09:31:05;;;;;;;12.57;7.07;;;;;;;7.54;56.04;99696.75;5117246;27;20358;-75
2022/02/14 09:33:34;;;;;;;14.65;6.57;;;;;;;7.61;55.72;99716.31;5098599;28;20375;-76
2022/02/14 09:36:04;;;;;;;14.00;7.43;;;;;;;7.53;56.02;99696.75;5116671;27;20054;-77
2022/02/14 09:38:34;;;;;;;16.25;7.22;;;;;;;7.71;56.51;99713.03;5115700;28;20051;-77
2022/02/14 09:41:05;;;;;;;14.07;7.32;;;;;;;7.86;56.12;99710.69;5117439;28;20054;-77
2022/02/14 09:43:35;;;;;;;14.48;7.35;;;;;;;7.90;54.99;99714.94;5116390;28;20112;-77
2022/02/14 09:46:05;;;;;;;15.35;7.53;;;;;;;7.92;55.66;99713.28;5116263;27;20546;-76
2022/02/14 09:48:36;;;;;;;12.57;7.28;;;;;;;8.02;54.92;99714.22;5115374;28;20056;-76
2022/02/14 09:51:05;;;;;;;13.35;7.10;;;;;;;8.10;54.81;99705.84;5064218;28;20138;-74
2022/02/14 09:53:36;;;;;;;12.40;5.22;;;;;;;8.17;54.68;99695.72;5116248;28;20550;-73
2022/02/14 09:56:12;;;;;;;14.43;7.85;;;;;;;7.93;53.97;99698.88;5116193;28;20637;-73
2022/02/14 09:58:43;;;;;;;14.02;6.95;;;;;;;8.01;54.57;99704.91;5116178;28;20050;-73
2022/02/14 10:01:12;;;;;;;13.13;6.55;;;;;;;8.05;54.11;99694.78;5115627;28;20051;-76
2022/02/14 10:03:51;;;;;;;12.30;6.93;;;;;;;8.19;53.93;99686.41;5116173;28;20048;-73
2022/02/14 10:06:28;;;;;;;14.15;7.68;;;;;;;8.07;54.44;99687.16;5114906;28;20047;-73
2022/02/14 10:09:11;;;;;;;15.07;7.82;;;;;;;8.25;53.83;99702.59;5113637;28;20118;-75
2022/02/14 10:11:59;;;;;;;14.43;7.25;;;;;;;8.20;55.00;99688.13;5114599;28;20168;-73
2022/02/14 10:14:28;;;;;;;13.32;7.38;;;;;;;8.36;53.56;99689.97;5116440;28;20036;-73
2022/02/14 10:17:06;;;;;;;13.53;7.27;;;;;;;8.50;53.55;99674.00;5096377;28;20147;-76
2022/02/14 10:19:37;;;;;;;11.82;7.03;;;;;;;8.84;53.18;99684.41;5095271;28;20047;-74
2022/02/14 10:22:10;;;;;;;13.60;6.50;;;;;;;8.83;52.62;99678.44;5095407;28;20048;-73
2022/02/14 10:24:42;;;;;;;12.65;7.28;;;;;;;9.09;51.51;99676.94;5093542;28;20497;-76
2022/02/14 10:27:13;;;;;;;11.73;7.03;;;;;;;8.92;51.50;99658.16;5095289;28;20044;-76
2022/02/14 10:29:43;;;;;;;12.95;7.53;;;;;;;8.79;51.38;99661.47;5094521;28;20130;-76
2022/02/14 10:32:16;;;;;;;;;;;;;;;8.81;50.91;99654.69;5095535;28;20552;-75
2022/02/14 10:34:49;;;;;;;12.25;6.15;;;;;;;8.75;51.63;99654.66;5094351;28;20361;-74
2022/02/14 10:37:39;;;;;;;21.17;7.18;;;;;;;9.02;51.33;99644.63;5093843;28;20068;-74
2022/02/14 10:40:27;;;;;;;11.70;6.50;;;;;;;8.98;50.82;99642.91;5094982;28;20143;-73
2022/02/14 10:42:56;;;;;;;12.40;5.70;;;;;;;9.07;49.86;99637.84;5095156;28;20489;-73
2022/02/14 10:45:26;;;;;;;13.70;6.05;;;;;;;9.27;51.13;99625.22;5093458;28;20044;-76
2022/02/14 10:47:56;;;;;;;16.33;7.13;;;;;;;9.33;50.43;99630.34;5094430;28;20523;-76
2022/02/14 10:50:27;;;;;;;12.07;6.53;;;;;;;9.36;50.28;99641.38;5094839;28;20143;-76
2022/02/14 10:52:58;;;;;;;10.68;5.88;;;;;;;9.23;49.39;99634.56;5094678;28;20047;-75
2022/02/14 10:55:32;;;;;;;12.82;6.13;;;;;;;9.09;49.82;99636.19;5094354;28;20081;-73
2022/02/14 10:58:01;;;;;;;15.52;6.70;;;;;;;9.25;49.71;99627.75;5094679;28;20056;-73
2022/02/14 11:00:33;;;;;;;13.35;6.35;;;;;;;9.29;49.60;99621.81;5094765;28;20048;-73
2022/02/14 11:03:06;;;;;;;10.13;6.50;;;;;;;9.40;48.71;99612.53;5094523;28;20059;-73
2022/02/14 11:05:38;;;;;;;11.82;6.43;;;;;;;9.33;48.99;99605.69;5093409;28;20109;-75
2022/02/14 11:08:08;;;;;;;10.98;5.97;;;;;;;9.21;48.31;99603.13;5094454;28;20047;-75
2022/02/14 11:10:42;;;;;;;10.85;6.05;;;;;;;9.53;49.19;99597.25;5094572;28;20044;-75
2022/02/14 11:13:12;;;;;;;12.35;5.85;;;;;;;9.41;48.84;99598.94;5094349;28;20143;-76
2022/02/14 11:15:42;;;;;;;13.20;5.90;;;;;;;9.53;48.54;99581.97;5094112;28;20143;-75
2022/02/14 11:18:14;;;;;;;13.57;6.18;;;;;;;9.68;48.59;99599.84;5094252;28;20052;-75
2022/02/14 11:20:45;;;;;;;9.60;5.45;;;;;;;9.66;47.62;99584.56;5094138;28;20052;-74
2022/02/14 11:23:16;;;;;;;9.88;6.00;;;;;;;9.55;47.45;99583.66;5094296;28;20047;-73
2022/02/14 11:25:55;;;;;;;10.00;5.57;;;;;;;9.39;46.91;99564.97;5093030;28;20058;-73
2022/02/14 11:28:30;;;;;;;9.75;5.10;;;;;;;9.41;47.39;99560.72;5094049;28;20044;-73
2022/02/14 11:31:11;;;;;;;10.40;5.35;;;;;;;9.57;47.66;99576.91;5093960;28;20101;-74
2022/02/14 11:33:51;;;;;;;11.20;5.20;;;;;;;9.51;47.06;99578.56;5094061;28;20051;-73
2022/02/14 11:36:21;;;;;;;10.65;5.50;;;;;;;9.48;47.22;99568.41;5094234;28;20079;-76
2022/02/14 11:38:52;;;;;;;11.68;6.00;;;;;;;9.77;47.00;99574.34;5093763;28;20401;-76
2022/02/14 11:41:28;;;;;;;12.55;5.82;;;;;;;9.65;47.34;99561.59;5093830;28;20071;-76
2022/02/14 11:44:17;;;;;;;12.18;6.07;;;;;;;9.82;47.41;99565.03;5093738;28;20048;-75
2022/02/14 11:46:48;;;;;;;10.82;5.93;;;;;;;9.71;47.33;99562.47;5093436;28;20123;-74
2022/02/14 11:49:19;;;;;;;13.80;5.90;;;;;;;9.56;46.83;99574.34;5092430;28;20125;-76
2022/02/14 11:52:09;;;;;;;13.25;6.47;;;;;;;9.51;47.30;99568.38;5093632;28;20040;-75